sensor_id;sensor_type;location;lat;lon;timestamp;pressure;altitude;pressure_sealevel;temperature;humidity
39177;BME280;24904;52.208;21.192;2022-10-17T00:00:12;101433.58;;;13.49;80.30
39177;BME280;24904;52.208;21.192;2022-10-17T00:05:15;101446.19;;;13.49;80.46
39177;BME280;24904;52.208;21.192;2022-10-17T00:10:19;101453.38;;;13.44;80.59
39177;BME280;24904;52.208;21.192;2022-10-17T00:15:23;101459.75;;;13.44;80.71
39177;BME280;24904;52.208;21.192;2022-10-17T00:20:26;101468.23;;;13.41;80.77
39177;BME280;24904;52.208;21.192;2022-10-17T00:25:29;101462.53;;;13.40;81.08
39177;BME280;24904;52.208;21.192;2022-10-17T00:30:32;101459.08;;;13.42;81.36
39177;BME280;24904;52.208;21.192;2022-10-17T00:35:35;101455.69;;;13.41;81.53
39177;BME280;24904;52.208;21.192;2022-10-17T00:40:38;101451.39;;;13.38;81.52
39177;BME280;24904;52.208;21.192;2022-10-17T00:45:41;101449.91;;;13.36;81.59
39177;BME280;24904;52.208;21.192;2022-10-17T00:50:48;101458.92;;;13.33;81.45
39177;BME280;24904;52.208;21.192;2022-10-17T00:55:52;101458.23;;;13.28;81.47
39177;BME280;24904;52.208;21.192;2022-10-17T01:00:55;101468.24;;;13.24;81.46
39177;BME280;24904;52.208;21.192;2022-10-17T01:05:58;101467.81;;;13.22;81.39
39177;BME280;24904;52.208;21.192;2022-10-17T01:11:11;101463.20;;;13.13;81.27
39177;BME280;24904;52.208;21.192;2022-10-17T01:16:19;101463.09;;;13.07;81.31
39177;BME280;24904;52.208;21.192;2022-10-17T01:27:35;101476.52;;;13.00;81.49
39177;BME280;24904;52.208;21.192;2022-10-17T01:32:43;101479.30;;;12.97;81.73
39177;BME280;24904;52.208;21.192;2022-10-17T01:37:54;101478.64;;;12.96;82.15
39177;BME280;24904;52.208;21.192;2022-10-17T01:43:04;101472.73;;;13.00;82.67
39177;BME280;24904;52.208;21.192;2022-10-17T01:48:11;101465.01;;;13.08;82.97
39177;BME280;24904;52.208;21.192;2022-10-17T01:59:40;101456.08;;;13.19;83.08
39177;BME280;24904;52.208;21.192;2022-10-17T02:13:37;101446.20;;;13.18;82.53
39177;BME280;24904;52.208;21.192;2022-10-17T02:18:56;101466.35;;;13.17;82.42
39177;BME280;24904;52.208;21.192;2022-10-17T02:24:09;101467.60;;;13.12;82.33
39177;BME280;24904;52.208;21.192;2022-10-17T02:29:57;101474.05;;;13.08;82.26
39177;BME280;24904;52.208;21.192;2022-10-17T02:35:06;101469.84;;;12.97;82.29
39177;BME280;24904;52.208;21.192;2022-10-17T02:40:12;101481.73;;;12.97;82.13
39177;BME280;24904;52.208;21.192;2022-10-17T02:45:17;101487.51;;;12.90;82.32
39177;BME280;24904;52.208;21.192;2022-10-17T02:50:24;101505.31;;;12.87;82.44
39177;BME280;24904;52.208;21.192;2022-10-17T02:55:32;101518.46;;;12.86;82.52
39177;BME280;24904;52.208;21.192;2022-10-17T03:00:38;101517.52;;;12.85;82.75
39177;BME280;24904;52.208;21.192;2022-10-17T03:05:42;101513.90;;;12.82;82.79
39177;BME280;24904;52.208;21.192;2022-10-17T03:10:45;101519.22;;;12.81;82.96
39177;BME280;24904;52.208;21.192;2022-10-17T03:15:49;101531.89;;;12.80;82.81
39177;BME280;24904;52.208;21.192;2022-10-17T03:20:52;101541.37;;;12.78;82.64
39177;BME280;24904;52.208;21.192;2022-10-17T03:25:55;101547.36;;;12.86;83.06
39177;BME280;24904;52.208;21.192;2022-10-17T03:30:58;101543.02;;;12.90;83.01
39177;BME280;24904;52.208;21.192;2022-10-17T03:36:06;101531.54;;;12.91;82.99
39177;BME280;24904;52.208;21.192;2022-10-17T03:41:10;101543.48;;;12.93;83.04
39177;BME280;24904;52.208;21.192;2022-10-17T03:46:13;101556.02;;;13.01;83.03
39177;BME280;24904;52.208;21.192;2022-10-17T03:51:17;101556.61;;;12.99;82.71
39177;BME280;24904;52.208;21.192;2022-10-17T03:56:25;101548.42;;;12.92;82.47
39177;BME280;24904;52.208;21.192;2022-10-17T04:01:37;101548.09;;;12.88;82.38
39177;BME280;24904;52.208;21.192;2022-10-17T04:06:41;101560.64;;;12.85;82.49
39177;BME280;24904;52.208;21.192;2022-10-17T04:11:46;101558.52;;;12.84;82.78
39177;BME280;24904;52.208;21.192;2022-10-17T04:16:49;101547.11;;;12.81;82.62
39177;BME280;24904;52.208;21.192;2022-10-17T04:21:55;101555.32;;;12.79;82.80
39177;BME280;24904;52.208;21.192;2022-10-17T04:26:59;101560.50;;;12.82;83.08
39177;BME280;24904;52.208;21.192;2022-10-17T04:32:05;101568.02;;;12.83;83.16
39177;BME280;24904;52.208;21.192;2022-10-17T04:37:17;101572.50;;;12.87;83.15
39177;BME280;24904;52.208;21.192;2022-10-17T04:42:22;101571.92;;;12.90;83.35
39177;BME280;24904;52.208;21.192;2022-10-17T04:47:26;101576.70;;;12.96;83.48
39177;BME280;24904;52.208;21.192;2022-10-17T04:52:30;101581.14;;;12.97;83.35
39177;BME280;24904;52.208;21.192;2022-10-17T04:57:36;101575.23;;;12.96;83.28
39177;BME280;24904;52.208;21.192;2022-10-17T05:02:51;101578.31;;;12.97;83.22
39177;BME280;24904;52.208;21.192;2022-10-17T05:07:55;101586.21;;;12.98;83.17
39177;BME280;24904;52.208;21.192;2022-10-17T05:13:02;101587.67;;;12.96;83.24
39177;BME280;24904;52.208;21.192;2022-10-17T05:18:06;101587.52;;;12.96;83.22
39177;BME280;24904;52.208;21.192;2022-10-17T05:23:10;101598.25;;;12.97;83.20
39177;BME280;24904;52.208;21.192;2022-10-17T05:28:15;101617.38;;;12.97;83.21
39177;BME280;24904;52.208;21.192;2022-10-17T05:33:19;101630.29;;;13.00;83.32
39177;BME280;24904;52.208;21.192;2022-10-17T05:38:22;101634.40;;;13.05;83.55
39177;BME280;24904;52.208;21.192;2022-10-17T05:43:26;101622.52;;;13.09;83.52
39177;BME280;24904;52.208;21.192;2022-10-17T05:48:29;101635.60;;;13.13;83.35
39177;BME280;24904;52.208;21.192;2022-10-17T05:53:33;101645.63;;;13.14;83.26
39177;BME280;24904;52.208;21.192;2022-10-17T05:58:41;101660.45;;;13.18;83.52
39177;BME280;24904;52.208;21.192;2022-10-17T06:03:47;101664.33;;;13.25;83.29
39177;BME280;24904;52.208;21.192;2022-10-17T06:08:50;101672.20;;;13.28;83.21
39177;BME280;24904;52.208;21.192;2022-10-17T06:13:59;101674.59;;;13.30;83.08
39177;BME280;24904;52.208;21.192;2022-10-17T06:19:04;101669.57;;;13.31;83.14
39177;BME280;24904;52.208;21.192;2022-10-17T06:24:07;101668.41;;;13.32;83.16
39177;BME280;24904;52.208;21.192;2022-10-17T06:29:12;101680.76;;;13.35;83.15
39177;BME280;24904;52.208;21.192;2022-10-17T06:34:20;101683.48;;;13.40;83.22
39177;BME280;24904;52.208;21.192;2022-10-17T06:39:24;101679.48;;;13.46;83.28
39177;BME280;24904;52.208;21.192;2022-10-17T06:44:37;101688.14;;;13.56;83.45
39177;BME280;24904;52.208;21.192;2022-10-17T06:50:00;101700.40;;;13.71;83.44
39177;BME280;24904;52.208;21.192;2022-10-17T06:55:12;101707.67;;;13.83;83.23
39177;BME280;24904;52.208;21.192;2022-10-17T07:00:23;101708.23;;;13.96;83.10
39177;BME280;24904;52.208;21.192;2022-10-17T07:05:29;101705.42;;;14.11;83.01
39177;BME280;24904;52.208;21.192;2022-10-17T07:10:33;101709.45;;;14.25;82.78
39177;BME280;24904;52.208;21.192;2022-10-17T07:15:40;101706.39;;;14.39;82.52
39177;BME280;24904;52.208;21.192;2022-10-17T07:20:52;101711.32;;;14.54;82.28
39177;BME280;24904;52.208;21.192;2022-10-17T07:25:59;101714.71;;;14.69;81.94
39177;BME280;24904;52.208;21.192;2022-10-17T07:31:05;101720.20;;;14.86;81.90
39177;BME280;24904;52.208;21.192;2022-10-17T07:36:09;101720.98;;;15.01;81.53
39177;BME280;24904;52.208;21.192;2022-10-17T07:41:13;101721.01;;;15.15;81.20
39177;BME280;24904;52.208;21.192;2022-10-17T07:46:16;101719.30;;;15.28;80.96
39177;BME280;24904;52.208;21.192;2022-10-17T07:51:20;101720.41;;;15.40;80.39
39177;BME280;24904;52.208;21.192;2022-10-17T07:56:23;101733.92;;;15.52;80.11
39177;BME280;24904;52.208;21.192;2022-10-17T08:01:27;101735.73;;;15.61;79.69
39177;BME280;24904;52.208;21.192;2022-10-17T08:06:30;101736.02;;;15.73;79.46
39177;BME280;24904;52.208;21.192;2022-10-17T08:11:33;101745.98;;;15.87;79.12
39177;BME280;24904;52.208;21.192;2022-10-17T08:16:37;101751.55;;;16.04;78.95
39177;BME280;24904;52.208;21.192;2022-10-17T08:21:40;101753.31;;;16.20;78.77
39177;BME280;24904;52.208;21.192;2022-10-17T08:26:46;101753.42;;;16.31;78.23
39177;BME280;24904;52.208;21.192;2022-10-17T08:31:49;101750.75;;;16.40;78.01
39177;BME280;24904;52.208;21.192;2022-10-17T08:36:52;101750.19;;;16.49;77.85
39177;BME280;24904;52.208;21.192;2022-10-17T08:42:02;101745.48;;;16.54;77.55
39177;BME280;24904;52.208;21.192;2022-10-17T08:47:10;101749.65;;;16.60;77.30
39177;BME280;24904;52.208;21.192;2022-10-17T08:52:21;101743.80;;;16.70;77.10
39177;BME280;24904;52.208;21.192;2022-10-17T08:57:26;101736.06;;;16.82;76.90
39177;BME280;24904;52.208;21.192;2022-10-17T09:02:40;101735.36;;;16.95;76.67
39177;BME280;24904;52.208;21.192;2022-10-17T09:07:51;101738.30;;;17.07;76.26
39177;BME280;24904;52.208;21.192;2022-10-17T09:13:04;101737.91;;;17.21;76.18
39177;BME280;24904;52.208;21.192;2022-10-17T09:18:14;101737.67;;;17.37;75.84
39177;BME280;24904;52.208;21.192;2022-10-17T09:23:22;101732.12;;;17.54;75.52
39177;BME280;24904;52.208;21.192;2022-10-17T09:28:30;101721.63;;;17.68;75.21
39177;BME280;24904;52.208;21.192;2022-10-17T09:33:37;101726.86;;;17.83;75.11
39177;BME280;24904;52.208;21.192;2022-10-17T09:38:42;101730.08;;;18.00;74.63
39177;BME280;24904;52.208;21.192;2022-10-17T09:43:46;101729.71;;;18.17;74.23
39177;BME280;24904;52.208;21.192;2022-10-17T09:48:53;101729.90;;;18.31;73.96
39177;BME280;24904;52.208;21.192;2022-10-17T09:54:02;101727.11;;;18.46;73.64
39177;BME280;24904;52.208;21.192;2022-10-17T09:59:07;101721.56;;;18.61;73.20
39177;BME280;24904;52.208;21.192;2022-10-17T10:04:14;101719.91;;;18.76;72.63
39177;BME280;24904;52.208;21.192;2022-10-17T10:09:23;101717.74;;;18.90;71.98
39177;BME280;24904;52.208;21.192;2022-10-17T10:14:32;101715.01;;;19.02;71.65
39177;BME280;24904;52.208;21.192;2022-10-17T10:19:37;101709.41;;;19.14;71.36
39177;BME280;24904;52.208;21.192;2022-10-17T10:24:43;101704.77;;;19.25;70.67
39177;BME280;24904;52.208;21.192;2022-10-17T10:29:50;101698.70;;;19.34;70.33
39177;BME280;24904;52.208;21.192;2022-10-17T10:34:56;101696.74;;;19.41;70.07
39177;BME280;24904;52.208;21.192;2022-10-17T10:40:03;101699.81;;;19.51;69.54
39177;BME280;24904;52.208;21.192;2022-10-17T10:45:16;101699.89;;;19.58;69.30
39177;BME280;24904;52.208;21.192;2022-10-17T10:50:28;101699.13;;;19.68;68.91
39177;BME280;24904;52.208;21.192;2022-10-17T11:07:39;101689.62;;;19.89;67.67
39177;BME280;24904;52.208;21.192;2022-10-17T11:12:49;101693.19;;;19.90;67.33
39177;BME280;24904;52.208;21.192;2022-10-17T11:17:58;101694.38;;;19.91;67.22
39177;BME280;24904;52.208;21.192;2022-10-17T11:23:11;101691.89;;;19.93;66.99
39177;BME280;24904;52.208;21.192;2022-10-17T11:28:22;101690.52;;;19.93;66.73
39177;BME280;24904;52.208;21.192;2022-10-17T11:33:29;101691.65;;;19.94;66.51
39177;BME280;24904;52.208;21.192;2022-10-17T11:38:44;101692.06;;;19.92;66.25
39177;BME280;24904;52.208;21.192;2022-10-17T11:43:52;101686.33;;;19.92;66.36
39177;BME280;24904;52.208;21.192;2022-10-17T11:49:03;101684.16;;;19.94;66.40
39177;BME280;24904;52.208;21.192;2022-10-17T11:54:12;101685.38;;;19.92;66.21
39177;BME280;24904;52.208;21.192;2022-10-17T11:59:47;101683.29;;;19.93;66.05
39177;BME280;24904;52.208;21.192;2022-10-17T12:04:57;101690.55;;;19.92;66.06
39177;BME280;24904;52.208;21.192;2022-10-17T12:10:18;101700.02;;;19.93;65.92
39177;BME280;24904;52.208;21.192;2022-10-17T12:15:30;101689.41;;;19.93;65.66
39177;BME280;24904;52.208;21.192;2022-10-17T12:20:37;101687.91;;;19.93;65.53
39177;BME280;24904;52.208;21.192;2022-10-17T12:25:50;101685.20;;;19.94;65.40
39177;BME280;24904;52.208;21.192;2022-10-17T12:30:59;101685.67;;;19.94;65.26
39177;BME280;24904;52.208;21.192;2022-10-17T12:42:47;101670.90;;;20.00;64.97
39177;BME280;24904;52.208;21.192;2022-10-17T12:47:51;101667.93;;;20.03;64.56
39177;BME280;24904;52.208;21.192;2022-10-17T12:53:02;101668.88;;;20.04;64.43
39177;BME280;24904;52.208;21.192;2022-10-17T12:58:13;101660.89;;;20.07;64.35
39177;BME280;24904;52.208;21.192;2022-10-17T13:03:20;101656.64;;;20.09;64.41
39177;BME280;24904;52.208;21.192;2022-10-17T13:08:26;101651.21;;;20.12;64.41
39177;BME280;24904;52.208;21.192;2022-10-17T13:13:36;101647.23;;;20.13;63.98
39177;BME280;24904;52.208;21.192;2022-10-17T13:18:40;101652.70;;;20.15;63.87
39177;BME280;24904;52.208;21.192;2022-10-17T13:23:43;101654.16;;;20.14;63.75
39177;BME280;24904;52.208;21.192;2022-10-17T13:29:02;101653.27;;;20.13;63.49
39177;BME280;24904;52.208;21.192;2022-10-17T13:34:14;101650.58;;;20.10;63.46
39177;BME280;24904;52.208;21.192;2022-10-17T13:39:21;101648.53;;;20.07;63.35
39177;BME280;24904;52.208;21.192;2022-10-17T13:44:27;101639.56;;;20.04;63.29
39177;BME280;24904;52.208;21.192;2022-10-17T13:49:32;101639.05;;;20.00;63.44
39177;BME280;24904;52.208;21.192;2022-10-17T13:54:38;101632.36;;;19.97;63.58
39177;BME280;24904;52.208;21.192;2022-10-17T13:59:43;101626.48;;;19.94;63.77
39177;BME280;24904;52.208;21.192;2022-10-17T14:04:59;101625.33;;;19.90;63.86
39177;BME280;24904;52.208;21.192;2022-10-17T14:10:04;101624.02;;;19.87;63.94
39177;BME280;24904;52.208;21.192;2022-10-17T14:15:11;101621.86;;;19.83;64.10
39177;BME280;24904;52.208;21.192;2022-10-17T14:20:20;101620.06;;;19.79;64.25
39177;BME280;24904;52.208;21.192;2022-10-17T14:25:29;101615.65;;;19.75;64.32
39177;BME280;24904;52.208;21.192;2022-10-17T14:30:34;101610.65;;;19.71;64.42
39177;BME280;24904;52.208;21.192;2022-10-17T14:35:38;101608.52;;;19.66;64.71
39177;BME280;24904;52.208;21.192;2022-10-17T14:40:49;101603.88;;;19.61;64.83
39177;BME280;24904;52.208;21.192;2022-10-17T14:45:53;101599.44;;;19.53;65.52
39177;BME280;24904;52.208;21.192;2022-10-17T14:51:10;101602.05;;;19.42;65.91
39177;BME280;24904;52.208;21.192;2022-10-17T14:56:24;101595.20;;;19.28;66.38
39177;BME280;24904;52.208;21.192;2022-10-17T15:01:28;101603.29;;;19.18;66.65
39177;BME280;24904;52.208;21.192;2022-10-17T15:06:32;101604.91;;;19.09;66.84
39177;BME280;24904;52.208;21.192;2022-10-17T15:11:35;101604.64;;;18.96;67.28
39177;BME280;24904;52.208;21.192;2022-10-17T15:16:38;101602.92;;;18.90;67.36
39177;BME280;24904;52.208;21.192;2022-10-17T15:21:42;101608.65;;;18.86;67.38
39177;BME280;24904;52.208;21.192;2022-10-17T15:26:45;101607.73;;;18.79;67.54
39177;BME280;24904;52.208;21.192;2022-10-17T15:31:48;101606.71;;;18.70;67.80
39177;BME280;24904;52.208;21.192;2022-10-17T15:36:51;101604.17;;;18.60;68.07
39177;BME280;24904;52.208;21.192;2022-10-17T15:41:55;101607.83;;;18.52;68.16
39177;BME280;24904;52.208;21.192;2022-10-17T15:46:58;101606.58;;;18.42;68.31
39177;BME280;24904;52.208;21.192;2022-10-17T15:52:01;101603.10;;;18.32;68.60
39177;BME280;24904;52.208;21.192;2022-10-17T15:57:04;101605.89;;;18.18;69.04
39177;BME280;24904;52.208;21.192;2022-10-17T16:02:12;101607.31;;;18.01;69.45
39177;BME280;24904;52.208;21.192;2022-10-17T16:07:16;101607.63;;;17.85;69.96
39177;BME280;24904;52.208;21.192;2022-10-17T16:12:25;101609.10;;;17.71;70.47
39177;BME280;24904;52.208;21.192;2022-10-17T16:17:29;101605.24;;;17.56;70.85
39177;BME280;24904;52.208;21.192;2022-10-17T16:22:33;101601.64;;;17.40;71.25
39177;BME280;24904;52.208;21.192;2022-10-17T16:27:37;101600.09;;;17.27;71.60
39177;BME280;24904;52.208;21.192;2022-10-17T16:32:40;101598.78;;;17.17;71.94
39177;BME280;24904;52.208;21.192;2022-10-17T16:37:44;101593.13;;;17.11;72.26
39177;BME280;24904;52.208;21.192;2022-10-17T16:42:47;101586.77;;;17.04;72.50
39177;BME280;24904;52.208;21.192;2022-10-17T16:47:50;101587.21;;;17.02;72.68
39177;BME280;24904;52.208;21.192;2022-10-17T16:52:54;101582.73;;;17.03;72.73
39177;BME280;24904;52.208;21.192;2022-10-17T16:57:57;101587.66;;;17.05;72.69
39177;BME280;24904;52.208;21.192;2022-10-17T17:03:01;101586.23;;;17.09;72.79
39177;BME280;24904;52.208;21.192;2022-10-17T17:08:04;101590.28;;;17.11;72.75
39177;BME280;24904;52.208;21.192;2022-10-17T17:13:07;101589.32;;;17.07;72.80
39177;BME280;24904;52.208;21.192;2022-10-17T17:18:10;101586.83;;;17.01;73.02
39177;BME280;24904;52.208;21.192;2022-10-17T17:23:15;101584.35;;;16.97;73.01
39177;BME280;24904;52.208;21.192;2022-10-17T17:28:18;101584.73;;;16.92;73.17
39177;BME280;24904;52.208;21.192;2022-10-17T17:33:21;101592.70;;;16.87;73.27
39177;BME280;24904;52.208;21.192;2022-10-17T17:38:24;101592.61;;;16.83;73.33
39177;BME280;24904;52.208;21.192;2022-10-17T17:43:29;101590.15;;;16.79;73.47
39177;BME280;24904;52.208;21.192;2022-10-17T17:48:33;101586.09;;;16.76;73.61
39177;BME280;24904;52.208;21.192;2022-10-17T17:53:38;101586.32;;;16.75;73.65
39177;BME280;24904;52.208;21.192;2022-10-17T17:58:42;101583.56;;;16.76;73.72
39177;BME280;24904;52.208;21.192;2022-10-17T18:03:47;101582.30;;;16.77;73.75
39177;BME280;24904;52.208;21.192;2022-10-17T18:08:53;101580.63;;;16.78;73.76
39177;BME280;24904;52.208;21.192;2022-10-17T18:13:58;101578.96;;;16.77;73.69
39177;BME280;24904;52.208;21.192;2022-10-17T18:19:03;101583.96;;;16.78;73.67
39177;BME280;24904;52.208;21.192;2022-10-17T18:24:07;101585.55;;;16.77;73.48
39177;BME280;24904;52.208;21.192;2022-10-17T18:29:10;101578.92;;;16.72;73.52
39177;BME280;24904;52.208;21.192;2022-10-17T18:34:14;101579.38;;;16.68;73.57
39177;BME280;24904;52.208;21.192;2022-10-17T18:39:17;101576.80;;;16.62;73.43
39177;BME280;24904;52.208;21.192;2022-10-17T18:44:21;101577.08;;;16.58;73.45
39177;BME280;24904;52.208;21.192;2022-10-17T18:49:24;101576.11;;;16.56;73.47
39177;BME280;24904;52.208;21.192;2022-10-17T18:54:27;101570.33;;;16.54;73.39
39177;BME280;24904;52.208;21.192;2022-10-17T18:59:33;101574.59;;;16.52;73.45
39177;BME280;24904;52.208;21.192;2022-10-17T19:04:36;101575.85;;;16.51;73.33
39177;BME280;24904;52.208;21.192;2022-10-17T19:09:40;101572.77;;;16.50;73.32
39177;BME280;24904;52.208;21.192;2022-10-17T19:14:43;101571.77;;;16.45;73.32
39177;BME280;24904;52.208;21.192;2022-10-17T19:19:46;101571.05;;;16.43;73.35
39177;BME280;24904;52.208;21.192;2022-10-17T19:24:51;101570.15;;;16.40;73.24
39177;BME280;24904;52.208;21.192;2022-10-17T19:29:55;101563.40;;;16.36;73.17
39177;BME280;24904;52.208;21.192;2022-10-17T19:35:00;101565.10;;;16.31;73.29
39177;BME280;24904;52.208;21.192;2022-10-17T19:40:05;101565.64;;;16.28;73.28
39177;BME280;24904;52.208;21.192;2022-10-17T19:45:10;101560.63;;;16.24;73.26
39177;BME280;24904;52.208;21.192;2022-10-17T19:50:13;101557.51;;;16.19;73.28
39177;BME280;24904;52.208;21.192;2022-10-17T19:55:16;101562.93;;;16.15;73.44
39177;BME280;24904;52.208;21.192;2022-10-17T20:00:20;101565.20;;;16.10;73.47
39177;BME280;24904;52.208;21.192;2022-10-17T20:05:23;101561.54;;;16.07;73.55
39177;BME280;24904;52.208;21.192;2022-10-17T20:10:27;101555.41;;;16.04;73.51
39177;BME280;24904;52.208;21.192;2022-10-17T20:15:30;101548.80;;;15.98;73.59
39177;BME280;24904;52.208;21.192;2022-10-17T20:20:35;101544.34;;;15.94;73.71
39177;BME280;24904;52.208;21.192;2022-10-17T20:25:38;101536.39;;;15.90;73.78
39177;BME280;24904;52.208;21.192;2022-10-17T20:30:44;101532.56;;;15.86;73.88
39177;BME280;24904;52.208;21.192;2022-10-17T20:35:47;101533.09;;;15.82;73.91
39177;BME280;24904;52.208;21.192;2022-10-17T20:40:51;101529.81;;;15.78;73.97
39177;BME280;24904;52.208;21.192;2022-10-17T20:45:54;101530.95;;;15.74;73.88
39177;BME280;24904;52.208;21.192;2022-10-17T20:50:57;101527.92;;;15.69;73.98
39177;BME280;24904;52.208;21.192;2022-10-17T20:56:01;101519.43;;;15.66;74.14
39177;BME280;24904;52.208;21.192;2022-10-17T21:01:08;101513.00;;;15.64;74.23
39177;BME280;24904;52.208;21.192;2022-10-17T21:06:12;101502.75;;;15.60;74.22
39177;BME280;24904;52.208;21.192;2022-10-17T21:11:18;101500.46;;;15.55;74.26
39177;BME280;24904;52.208;21.192;2022-10-17T21:16:21;101493.64;;;15.52;74.32
39177;BME280;24904;52.208;21.192;2022-10-17T21:21:26;101495.22;;;15.50;74.46
39177;BME280;24904;52.208;21.192;2022-10-17T21:26:33;101495.77;;;15.50;74.57
39177;BME280;24904;52.208;21.192;2022-10-17T21:31:38;101495.56;;;15.48;74.58
39177;BME280;24904;52.208;21.192;2022-10-17T21:36:42;101498.79;;;15.44;74.59
39177;BME280;24904;52.208;21.192;2022-10-17T21:41:45;101498.18;;;15.38;74.73
39177;BME280;24904;52.208;21.192;2022-10-17T21:46:49;101494.52;;;15.35;74.70
39177;BME280;24904;52.208;21.192;2022-10-17T21:51:53;101491.39;;;15.32;74.81
39177;BME280;24904;52.208;21.192;2022-10-17T21:56:56;101487.51;;;15.31;74.81
39177;BME280;24904;52.208;21.192;2022-10-17T22:02:01;101476.90;;;15.30;74.76
39177;BME280;24904;52.208;21.192;2022-10-17T22:07:05;101476.23;;;15.25;74.84
39177;BME280;24904;52.208;21.192;2022-10-17T22:12:09;101477.58;;;15.17;74.93
39177;BME280;24904;52.208;21.192;2022-10-17T22:17:14;101478.17;;;15.14;75.05
39177;BME280;24904;52.208;21.192;2022-10-17T22:22:19;101476.48;;;15.10;74.99
39177;BME280;24904;52.208;21.192;2022-10-17T22:27:23;101466.99;;;15.04;75.18
39177;BME280;24904;52.208;21.192;2022-10-17T22:32:27;101464.73;;;14.98;75.29
39177;BME280;24904;52.208;21.192;2022-10-17T22:37:31;101463.84;;;14.95;75.54
39177;BME280;24904;52.208;21.192;2022-10-17T22:42:36;101464.63;;;14.94;75.53
39177;BME280;24904;52.208;21.192;2022-10-17T22:47:40;101459.02;;;14.89;75.52
39177;BME280;24904;52.208;21.192;2022-10-17T22:52:44;101464.45;;;14.88;75.66
39177;BME280;24904;52.208;21.192;2022-10-17T23:07:10;101461.95;;;14.75;75.88
39177;BME280;24904;52.208;21.192;2022-10-17T23:12:15;101461.01;;;14.68;75.94
39177;BME280;24904;52.208;21.192;2022-10-17T23:17:18;101461.14;;;14.61;76.05
39177;BME280;24904;52.208;21.192;2022-10-17T23:22:21;101458.30;;;14.53;76.26
39177;BME280;24904;52.208;21.192;2022-10-17T23:27:24;101459.70;;;14.42;76.31
39177;BME280;24904;52.208;21.192;2022-10-17T23:32:27;101453.87;;;14.35;76.69
39177;BME280;24904;52.208;21.192;2022-10-17T23:37:30;101449.36;;;14.30;76.91
39177;BME280;24904;52.208;21.192;2022-10-17T23:49:53;101452.91;;;14.23;77.15
39177;BME280;24904;52.208;21.192;2022-10-17T23:54:56;101448.42;;;14.19;77.26
39177;BME280;24904;52.208;21.192;2022-10-17T23:59:59;101447.34;;;14.14;77.36
